createdAt,value
2019-01-02T00:00:45.531Z,100195.24
2019-01-02T00:03:14.561Z,100187.11
2019-01-02T00:05:43.628Z,100188.24
2019-01-02T00:08:12.664Z,100195.34
2019-01-02T00:10:41.712Z,100210.15
2019-01-02T00:13:11.768Z,100207.47
2019-01-02T00:15:40.815Z,100212.65
2019-01-02T00:18:09.873Z,100222.56
2019-01-02T00:20:39.021Z,100223.73
2019-01-02T00:23:11.166Z,100232.06
2019-01-02T00:25:40.238Z,100244.66
2019-01-02T00:28:09.290Z,100250.95
2019-01-02T00:30:38.338Z,100245.53
2019-01-02T00:33:07.447Z,100259.23
2019-01-02T00:35:36.498Z,100257.39
2019-01-02T00:38:05.528Z,100269.50
2019-01-02T00:40:34.601Z,100247.59
2019-01-02T00:43:24.850Z,100251.55
2019-01-02T00:45:53.909Z,100259.38
2019-01-02T00:48:22.967Z,100260.31
2019-01-02T00:50:52.013Z,100256.92
2019-01-02T00:56:18.623Z,100264.39
2019-01-02T00:58:47.860Z,100271.48
2019-01-02T01:01:17.692Z,100275.48
2019-01-02T01:03:58.150Z,100281.19
2019-01-02T01:06:27.194Z,100278.84
2019-01-02T01:08:56.236Z,100277.66
2019-01-02T01:11:25.346Z,100290.50
2019-01-02T01:13:54.394Z,100307.64
2019-01-02T01:16:23.421Z,100332.77
2019-01-02T01:18:52.487Z,100296.41
2019-01-02T01:21:21.535Z,100318.09
2019-01-02T01:23:50.581Z,100331.32
2019-01-02T01:26:19.651Z,100323.95
2019-01-02T01:28:48.701Z,100318.25
2019-01-02T01:31:17.752Z,100329.51
2019-01-02T01:36:41.197Z,100349.36
2019-01-02T01:39:10.228Z,100360.19
2019-01-02T01:41:39.275Z,100352.97
2019-01-02T01:44:08.328Z,100361.39
2019-01-02T01:46:37.402Z,100359.20
2019-01-02T01:49:06.439Z,100359.81
2019-01-02T01:51:35.484Z,100368.01
2019-01-02T01:54:04.713Z,100369.56
2019-01-02T01:56:33.753Z,100376.23
2019-01-02T01:59:02.802Z,100376.02
2019-01-02T02:01:31.868Z,100386.61
2019-01-02T02:04:01.960Z,100389.80
2019-01-02T02:06:31.000Z,100398.61
2019-01-02T02:09:00.068Z,100412.88
2019-01-02T02:11:29.115Z,100414.19
2019-01-02T02:14:11.784Z,100436.55
2019-01-02T02:16:40.825Z,100442.39
2019-01-02T02:19:09.859Z,100445.63
2019-01-02T02:21:38.925Z,100440.52
2019-01-02T02:24:07.967Z,100435.09
2019-01-02T02:26:37.024Z,100430.94
2019-01-02T02:29:06.115Z,100435.16
2019-01-02T02:31:35.159Z,100434.35
2019-01-02T02:34:04.207Z,100441.57
2019-01-02T02:36:33.293Z,100444.86
2019-01-02T02:39:02.334Z,100449.86
2019-01-02T02:41:31.380Z,100443.23
2019-01-02T02:44:20.267Z,100449.03
2019-01-02T02:46:49.293Z,100446.05
2019-01-02T02:49:18.334Z,100459.47
2019-01-02T02:51:47.437Z,100468.76
2019-01-02T02:54:16.501Z,100487.38
2019-01-02T02:56:45.530Z,100495.60
2019-01-02T02:59:14.598Z,100506.53
2019-01-02T03:01:43.742Z,100513.96
2019-01-02T03:04:12.773Z,100508.73
2019-01-02T03:06:42.287Z,100521.86
2019-01-02T03:09:10.890Z,100551.17
2019-01-02T03:11:39.936Z,100562.23
2019-01-02T03:14:09.204Z,100576.30
2019-01-02T03:16:38.246Z,100586.58
2019-01-02T03:19:07.341Z,100599.92
2019-01-02T03:21:36.421Z,100622.81
2019-01-02T03:24:05.457Z,100619.98
2019-01-02T03:26:34.491Z,100604.05
2019-01-02T03:29:03.563Z,100623.77
2019-01-02T03:31:32.624Z,100627.83
2019-01-02T03:34:01.671Z,100632.83
2019-01-02T03:36:30.954Z,100657.41
2019-01-02T03:39:00.002Z,100653.00
2019-01-02T03:41:29.045Z,100641.19
2019-01-02T03:43:58.113Z,100677.17
2019-01-02T03:46:27.162Z,100690.42
2019-01-02T03:48:56.198Z,100686.81
2019-01-02T03:51:25.274Z,100720.34
2019-01-02T03:53:54.316Z,100711.85
2019-01-02T03:56:23.362Z,100719.39
2019-01-02T03:58:52.454Z,100720.08
2019-01-02T04:01:21.507Z,100722.56
2019-01-02T04:03:50.550Z,100725.66
2019-01-02T04:06:19.637Z,100749.73
2019-01-02T04:08:48.669Z,100754.22
2019-01-02T04:11:17.717Z,100740.62
2019-01-02T04:13:46.785Z,100748.89
2019-01-02T04:16:15.826Z,100750.39
2019-01-02T04:18:44.880Z,100776.19
2019-01-02T04:21:14.096Z,100753.91
2019-01-02T04:23:43.132Z,100812.17
2019-01-02T04:26:12.165Z,100820.41
2019-01-02T04:28:41.236Z,100818.31
2019-01-02T04:31:10.286Z,100817.00
2019-01-02T04:33:39.333Z,100806.34
2019-01-02T04:36:08.407Z,100819.70
2019-01-02T04:38:37.457Z,100818.39
2019-01-02T04:41:06.505Z,100821.80
2019-01-02T04:43:35.622Z,100837.80
2019-01-02T04:46:04.675Z,100844.45
2019-01-02T04:48:33.716Z,100847.48
2019-01-02T04:51:02.781Z,100844.30
2019-01-02T04:53:31.819Z,100850.66
2019-01-02T04:56:00.864Z,100859.59
2019-01-02T04:58:29.936Z,100847.72
2019-01-02T05:00:58.972Z,100886.99
2019-01-02T05:03:28.025Z,100896.16
2019-01-02T05:05:57.204Z,100896.11
2019-01-02T05:08:26.240Z,100882.38
2019-01-02T05:10:55.277Z,100889.98
2019-01-02T05:13:24.353Z,100905.77
2019-01-02T05:15:53.463Z,100911.16
2019-01-02T05:18:22.506Z,100941.61
2019-01-02T05:20:51.569Z,100954.22
2019-01-02T05:23:20.616Z,100944.50
2019-01-02T05:25:49.668Z,100950.37
2019-01-02T05:28:18.782Z,100955.95
2019-01-02T05:30:47.834Z,100956.28
2019-01-02T05:33:16.869Z,100949.33
2019-01-02T05:35:46.153Z,100953.39
2019-01-02T05:38:15.198Z,100963.34
2019-01-02T05:40:44.254Z,100961.81
2019-01-02T05:43:13.327Z,100959.81
2019-01-02T05:45:42.374Z,100969.26
2019-01-02T05:48:11.420Z,100965.08
2019-01-02T05:50:40.525Z,100993.64
2019-01-02T05:53:24.225Z,100994.50
2019-01-02T05:55:53.302Z,100963.86
2019-01-02T05:58:22.338Z,100984.93
2019-01-02T06:00:51.400Z,100994.22
2019-01-02T06:03:20.476Z,101006.19
2019-01-02T06:05:49.526Z,100991.34
2019-01-02T06:08:18.559Z,101004.92
2019-01-02T06:10:47.679Z,101006.44
2019-01-02T06:13:17.551Z,101005.02
2019-01-02T06:15:46.594Z,101023.02
2019-01-02T06:18:16.251Z,101006.59
2019-01-02T06:20:45.293Z,101028.66
2019-01-02T06:23:14.344Z,101037.19
2019-01-02T06:25:43.421Z,101040.94
2019-01-02T06:28:12.469Z,101047.03
2019-01-02T06:30:41.515Z,101044.38
2019-01-02T06:33:10.629Z,101058.66
2019-01-02T06:35:39.679Z,101064.97
2019-01-02T06:38:08.723Z,101047.52
2019-01-02T06:40:38.015Z,101084.22
2019-01-02T06:43:07.065Z,101106.33
2019-01-02T06:45:36.115Z,101105.45
2019-01-02T06:48:05.198Z,101114.41
2019-01-02T06:50:34.265Z,101106.91
2019-01-02T06:53:03.310Z,101128.58
2019-01-02T06:55:32.392Z,101123.38
2019-01-02T06:58:01.436Z,101127.67
2019-01-02T07:00:30.475Z,101147.78
2019-01-02T07:02:59.553Z,101157.61
2019-01-02T07:05:28.603Z,101146.41
2019-01-02T07:07:57.640Z,101153.47
2019-01-02T07:10:26.707Z,101140.64
2019-01-02T07:12:55.745Z,101140.92
2019-01-02T07:15:24.789Z,101150.00
2019-01-02T07:17:53.892Z,101150.97
2019-01-02T07:20:22.936Z,101158.97
2019-01-02T07:22:51.982Z,101186.61
2019-01-02T07:25:21.052Z,101200.73
2019-01-02T07:28:12.911Z,101202.36
2019-01-02T07:30:43.427Z,101203.73
2019-01-02T07:38:40.256Z,101204.77
2019-01-02T07:43:45.950Z,101213.77
2019-01-02T07:46:33.569Z,101206.61
2019-01-02T07:49:08.463Z,101212.63
2019-01-02T07:51:42.580Z,101222.86
2019-01-02T07:57:04.094Z,101240.02
2019-01-02T07:59:38.933Z,101242.15
2019-01-02T08:02:23.845Z,101255.04
2019-01-02T08:07:54.267Z,101246.87
2019-01-02T08:10:24.818Z,101255.98
2019-01-02T08:12:59.559Z,101263.77
2019-01-02T08:15:30.543Z,101260.17
2019-01-02T08:18:02.181Z,101267.04
2019-01-02T08:20:50.361Z,101264.00
2019-01-02T08:23:19.487Z,101260.23
2019-01-02T08:26:03.050Z,101286.07
2019-01-02T08:28:50.207Z,101279.20
2019-01-02T08:31:23.813Z,101289.64
2019-01-02T08:34:06.382Z,101310.80
2019-01-02T08:36:35.425Z,101301.02
2019-01-02T08:39:11.115Z,101306.70
2019-01-02T08:41:46.694Z,101304.33
2019-01-02T08:44:16.558Z,101330.07
2019-01-02T08:46:51.447Z,101328.35
2019-01-02T08:49:22.461Z,101334.03
2019-01-02T08:51:54.292Z,101336.95
2019-01-02T08:54:27.333Z,101335.78
2019-01-02T08:56:59.912Z,101346.09
2019-01-02T08:59:30.777Z,101332.72
2019-01-02T09:02:02.532Z,101349.58
2019-01-02T09:04:32.550Z,101351.81
2019-01-02T09:07:07.515Z,101379.86
2019-01-02T09:09:38.399Z,101372.08
2019-01-02T09:12:14.023Z,101378.27
2019-01-02T09:14:54.793Z,101393.09
2019-01-02T09:17:24.625Z,101399.21
2019-01-02T09:19:54.601Z,101411.62
2019-01-02T09:22:39.369Z,101409.64
2019-01-02T09:25:12.949Z,101388.06
2019-01-02T09:27:46.856Z,101412.70
2019-01-02T09:30:18.478Z,101420.30
2019-01-02T09:32:53.471Z,101425.06
2019-01-02T09:35:32.216Z,101423.41
2019-01-02T09:38:14.892Z,101441.30
2019-01-02T09:40:44.833Z,101444.66
2019-01-02T09:43:15.715Z,101445.34
2019-01-02T09:46:00.370Z,101456.48
2019-01-02T09:48:42.869Z,101460.44
2019-01-02T09:51:21.584Z,101460.23
2019-01-02T09:53:55.661Z,101443.56
2019-01-02T09:56:30.687Z,101465.69
2019-01-02T09:59:15.661Z,101490.83
2019-01-02T10:01:47.207Z,101476.02
2019-01-02T10:04:16.277Z,101457.67
2019-01-02T10:06:45.333Z,101478.45
2019-01-02T10:09:17.855Z,101486.61
2019-01-02T10:11:51.429Z,101491.53
2019-01-02T10:14:25.344Z,101502.70
2019-01-02T10:17:00.851Z,101493.59
2019-01-02T10:19:33.900Z,101523.02
2019-01-02T10:22:03.745Z,101549.03
2019-01-02T10:24:34.535Z,101526.89
2019-01-02T10:27:04.499Z,101508.31
2019-01-02T10:29:44.603Z,101526.59
2019-01-02T10:32:19.324Z,101547.86
2019-01-02T10:34:51.089Z,101550.03
2019-01-02T10:37:23.678Z,101541.44
2019-01-02T10:39:59.627Z,101529.41
2019-01-02T10:42:32.179Z,101536.33
2019-01-02T10:45:14.509Z,101531.61
2019-01-02T10:47:45.424Z,101538.83
2019-01-02T10:50:16.346Z,101539.41
2019-01-02T10:52:50.934Z,101539.14
2019-01-02T10:55:26.607Z,101553.88
2019-01-02T10:57:56.453Z,101552.81
2019-01-02T11:00:30.255Z,101561.77
2019-01-02T11:03:07.834Z,101561.68
2019-01-02T11:05:40.366Z,101552.09
2019-01-02T11:08:13.521Z,101559.75
2019-01-02T11:10:42.153Z,101570.99
2019-01-02T11:13:14.027Z,101568.52
2019-01-02T11:15:43.141Z,101579.88
2019-01-02T11:18:13.119Z,101604.73
2019-01-02T11:20:53.960Z,101593.52
2019-01-02T11:23:39.813Z,101600.24
2019-01-02T11:26:09.819Z,101607.66
2019-01-02T11:28:44.735Z,101598.09
2019-01-02T11:31:20.522Z,101598.20
2019-01-02T11:33:50.385Z,101606.86
2019-01-02T11:36:21.301Z,101597.36
2019-01-02T11:38:56.991Z,101603.05
2019-01-02T11:41:31.883Z,101607.23
2019-01-02T11:44:03.470Z,101598.66
2019-01-02T11:46:32.853Z,101612.06
2019-01-02T11:49:01.900Z,101604.03
2019-01-02T11:51:30.963Z,101618.58
2019-01-02T11:54:00.349Z,101629.86
2019-01-02T11:56:29.395Z,101632.80
2019-01-02T11:58:58.431Z,101624.25
2019-01-02T12:01:27.510Z,101628.64
2019-01-02T12:03:56.556Z,101643.70
2019-01-02T12:06:25.580Z,101641.18
2019-01-02T12:08:54.692Z,101658.48
2019-01-02T12:11:23.736Z,101657.02
2019-01-02T12:13:52.782Z,101661.52
2019-01-02T12:16:21.926Z,101643.69
2019-01-02T12:18:50.980Z,101649.68
2019-01-02T12:21:20.020Z,101644.66
2019-01-02T12:23:49.099Z,101674.37
2019-01-02T12:26:18.147Z,101664.89
2019-01-02T12:28:47.198Z,101683.02
2019-01-02T12:31:16.395Z,101672.93
2019-01-02T12:33:45.439Z,101698.20
2019-01-02T12:36:14.488Z,101695.41
2019-01-02T12:38:43.578Z,101702.92
2019-01-02T12:41:12.635Z,101703.88
2019-01-02T12:43:42.660Z,101718.98
2019-01-02T12:46:10.766Z,101708.88
2019-01-02T12:48:39.828Z,101739.34
2019-01-02T12:51:08.875Z,101723.08
2019-01-02T12:53:43.534Z,101731.75
2019-01-02T12:56:07.057Z,101741.38
2019-01-02T12:58:36.113Z,101730.23
2019-01-02T13:01:05.182Z,101754.92
2019-01-02T13:03:45.941Z,101738.30
2019-01-02T13:06:26.742Z,101733.08
2019-01-02T13:09:12.608Z,101754.64
2019-01-02T13:11:45.362Z,101761.52
2019-01-02T13:14:17.122Z,101768.87
2019-01-02T13:16:54.995Z,101768.47
2019-01-02T13:19:26.747Z,101766.84
2019-01-02T13:22:02.558Z,101779.45
2019-01-02T13:24:32.429Z,101776.70
2019-01-02T13:27:01.481Z,101786.97
2019-01-02T13:29:30.783Z,101810.11
2019-01-02T13:32:06.606Z,101783.92
2019-01-02T13:34:39.202Z,101787.61
2019-01-02T13:37:10.760Z,101790.78
2019-01-02T13:39:51.588Z,101796.92
2019-01-02T13:42:21.440Z,101795.65
2019-01-02T13:44:50.478Z,101807.28
2019-01-02T13:47:28.914Z,101801.84
2019-01-02T13:49:58.747Z,101809.68
2019-01-02T13:52:27.788Z,101784.24
2019-01-02T13:54:56.881Z,101833.17
2019-01-02T13:57:25.908Z,101838.23
2019-01-02T13:59:55.030Z,101831.45
2019-01-02T14:02:24.108Z,101840.92
2019-01-02T14:04:53.148Z,101832.27
2019-01-02T14:07:22.197Z,101834.75
2019-01-02T14:09:51.303Z,101839.86
2019-01-02T14:12:20.341Z,101802.14
2019-01-02T14:14:49.391Z,101859.52
2019-01-02T14:17:18.488Z,101820.28
2019-01-02T14:19:47.523Z,101867.13
2019-01-02T14:22:16.571Z,101845.17
2019-01-02T14:24:45.648Z,101862.48
2019-01-02T14:27:14.695Z,101851.41
2019-01-02T14:29:43.754Z,101882.51
2019-01-02T14:32:12.863Z,101866.19
2019-01-02T14:34:41.916Z,101865.62
2019-01-02T14:37:10.960Z,101869.33
2019-01-02T14:39:40.033Z,101881.16
2019-01-02T14:42:09.056Z,101888.34
2019-01-02T14:44:38.102Z,101875.97
2019-01-02T14:47:07.487Z,101883.30
2019-01-02T14:49:36.543Z,101888.44
2019-01-02T14:52:05.583Z,101880.28
2019-01-02T14:54:34.685Z,101881.39
2019-01-02T14:57:03.734Z,101895.97
2019-01-02T14:59:32.787Z,101886.54
2019-01-02T15:02:01.871Z,101920.69
2019-01-02T15:04:30.921Z,101949.08
2019-01-02T15:06:59.986Z,101927.08
2019-01-02T15:09:29.075Z,101919.03
2019-01-02T15:11:58.152Z,101924.63
2019-01-02T15:14:27.207Z,101935.81
2019-01-02T15:16:56.317Z,101941.48
2019-01-02T15:19:26.129Z,101917.09
2019-01-02T15:21:55.409Z,101944.51
2019-01-02T15:24:24.245Z,101937.34
2019-01-02T15:26:53.300Z,101940.64
2019-01-02T15:29:22.354Z,101948.05
2019-01-02T15:31:51.424Z,101949.91
2019-01-02T15:34:20.475Z,101964.80
2019-01-02T15:36:49.528Z,101967.65
2019-01-02T15:39:18.607Z,101968.73
2019-01-02T15:41:47.668Z,101988.69
2019-01-02T15:44:16.730Z,101997.47
2019-01-02T15:46:45.810Z,101992.89
2019-01-02T15:49:14.864Z,102009.20
2019-01-02T15:51:43.907Z,102003.19
2019-01-02T15:54:13.003Z,101997.80
2019-01-02T15:56:42.048Z,101997.92
2019-01-02T15:59:11.099Z,101995.81
2019-01-02T16:01:40.193Z,101998.41
2019-01-02T16:04:09.233Z,101993.18
2019-01-02T16:06:38.277Z,101972.64
2019-01-02T16:09:07.363Z,101998.32
2019-01-02T16:11:36.402Z,102008.69
2019-01-02T16:14:16.807Z,102024.16
2019-01-02T16:16:40.684Z,102012.16
2019-01-02T16:19:09.730Z,101983.84
2019-01-02T16:21:38.854Z,102008.58
2019-01-02T16:24:07.924Z,102034.00
2019-01-02T16:26:36.972Z,102026.74
2019-01-02T16:29:06.057Z,102025.67
2019-01-02T16:31:35.101Z,102025.57
2019-01-02T16:34:04.149Z,102045.64
2019-01-02T16:36:33.992Z,102036.74
2019-01-02T16:39:02.261Z,102034.05
2019-01-02T16:41:31.328Z,102031.33
2019-01-02T16:47:05.320Z,102025.27
2019-01-02T16:49:34.406Z,102035.67
2019-01-02T16:52:03.457Z,102028.23
2019-01-02T16:54:32.507Z,102039.31
2019-01-02T16:57:01.583Z,102049.72
2019-01-02T16:59:30.638Z,102039.31
2019-01-02T17:01:59.701Z,102034.90
2019-01-02T17:04:28.799Z,102049.59
2019-01-02T17:06:57.845Z,102071.66
2019-01-02T17:09:26.895Z,102074.52
2019-01-02T17:11:55.982Z,102061.67
2019-01-02T17:14:25.041Z,102064.67
2019-01-02T17:16:54.106Z,102051.60
2019-01-02T17:19:23.190Z,102084.70
2019-01-02T17:21:52.242Z,102066.91
2019-01-02T17:24:21.305Z,102061.31
2019-01-02T17:26:50.734Z,102086.11
2019-01-02T17:29:19.783Z,102095.22
2019-01-02T17:31:48.841Z,102113.22
2019-01-02T17:34:17.904Z,102115.47
2019-01-02T17:36:46.944Z,102089.17
2019-01-02T17:39:15.983Z,102093.82
2019-01-02T17:41:45.048Z,102046.53
2019-01-02T17:44:14.088Z,102076.25
2019-01-02T17:46:43.148Z,102089.78
2019-01-02T17:49:12.261Z,102109.58
2019-01-02T17:51:41.307Z,102114.06
2019-01-02T17:54:10.359Z,102112.41
2019-01-02T17:56:39.423Z,102112.14
2019-01-02T17:59:08.487Z,102123.14
2019-01-02T18:01:37.543Z,102104.01
2019-01-02T18:04:06.623Z,102114.36
2019-01-02T18:06:35.671Z,102105.08
2019-01-02T18:09:04.713Z,102109.81
2019-01-02T18:11:33.904Z,102111.33
2019-01-02T18:14:02.948Z,102125.25
2019-01-02T18:16:32.009Z,102122.55
2019-01-02T18:19:01.094Z,102120.91
2019-01-02T18:21:30.140Z,102124.76
2019-01-02T18:23:59.180Z,102124.45
2019-01-02T18:26:28.254Z,102131.20
2019-01-02T18:28:57.298Z,102119.03
2019-01-02T18:31:26.339Z,102128.91
2019-01-02T18:33:55.431Z,102125.35
2019-01-02T18:36:24.516Z,102159.90
2019-01-02T18:38:53.525Z,102230.45
2019-01-02T18:41:22.594Z,102192.67
2019-01-02T18:43:51.635Z,102173.92
2019-01-02T18:46:20.685Z,102157.59
2019-01-02T18:48:49.750Z,102160.79
2019-01-02T18:51:18.797Z,102162.45
2019-01-02T18:53:47.846Z,102177.73
2019-01-02T18:56:16.940Z,102167.53
2019-01-02T18:58:46.004Z,102159.18
2019-01-02T19:01:15.064Z,102165.83
2019-01-02T19:03:44.144Z,102173.59
2019-01-02T19:06:13.202Z,102175.79
2019-01-02T19:08:42.253Z,102156.03
2019-01-02T19:11:11.325Z,102177.34
2019-01-02T19:13:40.365Z,102184.59
2019-01-02T19:16:09.407Z,102171.89
2019-01-02T19:18:38.597Z,102173.75
2019-01-02T19:21:07.668Z,102174.18
2019-01-02T19:23:36.718Z,102160.19
2019-01-02T19:26:05.790Z,102196.11
2019-01-02T19:28:34.850Z,102176.97
2019-01-02T19:31:03.898Z,102202.55
2019-01-02T19:33:32.970Z,102197.39
2019-01-02T19:36:02.018Z,102196.38
2019-01-02T19:38:31.063Z,102174.30
2019-01-02T19:41:00.181Z,102191.05
2019-01-02T19:43:34.940Z,102197.84
2019-01-02T19:46:04.012Z,102183.09
2019-01-02T19:48:33.059Z,102188.22
2019-01-02T19:51:02.092Z,102182.72
2019-01-02T19:53:31.159Z,102198.73
2019-01-02T19:56:00.213Z,102186.41
2019-01-02T19:58:29.262Z,102207.80
2019-01-02T20:00:58.365Z,102213.78
2019-01-02T20:03:27.415Z,102209.27
2019-01-02T20:05:56.464Z,102200.61
2019-01-02T20:08:25.536Z,102206.17
2019-01-02T20:10:54.592Z,102201.09
2019-01-02T20:13:23.633Z,102195.73
2019-01-02T20:15:52.698Z,102211.53
2019-01-02T20:18:21.760Z,102189.86
2019-01-02T20:20:50.824Z,102205.61
2019-01-02T20:23:19.953Z,102212.53
2019-01-02T20:25:48.997Z,102195.23
2019-01-02T20:28:18.039Z,102200.16
2019-01-02T20:30:47.107Z,102202.74
2019-01-02T20:33:16.145Z,102206.47
2019-01-02T20:35:45.193Z,102193.56
2019-01-02T20:38:14.258Z,102198.29
2019-01-02T20:40:43.313Z,102196.22
2019-01-02T20:43:12.356Z,102204.76
2019-01-02T20:45:41.534Z,102210.06
2019-01-02T20:48:10.572Z,102201.09
2019-01-02T20:50:39.621Z,102213.73
2019-01-02T20:53:08.713Z,102213.30
2019-01-02T20:55:37.766Z,102222.55
2019-01-02T20:58:06.823Z,102219.54
2019-01-02T21:00:35.901Z,102213.31
2019-01-02T21:03:04.949Z,102203.95
2019-01-02T21:05:33.979Z,102207.38
2019-01-02T21:08:03.095Z,102217.44
2019-01-02T21:10:32.138Z,102218.64
2019-01-02T21:13:01.186Z,102222.49
2019-01-02T21:15:30.261Z,102214.56
2019-01-02T21:17:59.334Z,102224.67
2019-01-02T21:20:28.398Z,102184.18
2019-01-02T21:22:58.430Z,102217.48
2019-01-02T21:25:27.481Z,102209.92
2019-01-02T21:27:56.513Z,102214.70
2019-01-02T21:30:25.602Z,102251.59
2019-01-02T21:32:54.647Z,102219.95
2019-01-02T21:35:23.701Z,102220.02
2019-01-02T21:37:52.771Z,102214.61
2019-01-02T21:40:21.810Z,102224.98
2019-01-02T21:42:51.874Z,102235.75
2019-01-02T21:45:20.936Z,102226.06
2019-01-02T21:47:49.970Z,102228.45
2019-01-02T21:50:19.016Z,102220.83
2019-01-02T21:52:48.104Z,102238.88
2019-01-02T21:55:17.140Z,102232.89
2019-01-02T21:57:46.191Z,102239.23
2019-01-02T22:00:15.258Z,102251.20
2019-01-02T22:02:44.297Z,102233.59
2019-01-02T22:05:13.333Z,102251.84
2019-01-02T22:07:42.408Z,102262.55
2019-01-02T22:10:11.455Z,102257.13
2019-01-02T22:12:40.494Z,102262.72
2019-01-02T22:15:09.926Z,102257.55
2019-01-02T22:17:40.363Z,102285.62
2019-01-02T22:20:08.019Z,102294.48
2019-01-02T22:22:37.092Z,102285.80
2019-01-02T22:25:06.158Z,102286.17
2019-01-02T22:27:35.191Z,102266.69
2019-01-02T22:30:04.263Z,102280.44
2019-01-02T22:32:33.308Z,102293.64
2019-01-02T22:35:02.338Z,102290.55
2019-01-02T22:37:31.444Z,102266.39
2019-01-02T22:40:00.504Z,102286.64
2019-01-02T22:42:29.550Z,102284.75
2019-01-02T22:44:58.621Z,102277.98
2019-01-02T22:47:27.661Z,102286.66
2019-01-02T22:49:56.703Z,102281.13
2019-01-02T22:52:25.757Z,102279.28
2019-01-02T22:54:54.807Z,102282.69
2019-01-02T22:57:23.843Z,102277.60
2019-01-02T22:59:52.942Z,102267.84
2019-01-02T23:02:21.985Z,102271.10
2019-01-02T23:04:51.015Z,102275.81
2019-01-02T23:07:24.015Z,102296.39
2019-01-02T23:09:55.020Z,102296.67
2019-01-02T23:12:24.062Z,102286.53
2019-01-02T23:14:58.664Z,102290.03
2019-01-02T23:17:31.498Z,102299.84
2019-01-02T23:20:06.166Z,102331.69
2019-01-02T23:22:37.155Z,102318.13
2019-01-02T23:25:07.038Z,102306.24
2019-01-02T23:27:41.607Z,102306.92
2019-01-02T23:33:07.756Z,102299.22
2019-01-02T23:35:36.782Z,102299.05
2019-01-02T23:38:07.668Z,102290.32
2019-01-02T23:40:42.337Z,102298.05
2019-01-02T23:43:13.180Z,102305.46
2019-01-02T23:45:43.154Z,102302.82
2019-01-02T23:48:17.139Z,102307.23
2019-01-02T23:50:50.091Z,102302.94
2019-01-02T23:53:19.147Z,102291.56
2019-01-02T23:55:53.838Z,102293.05
2019-01-02T23:58:26.108Z,102291.28
